Time;durP1;ratioP1;P1;durP2;ratioP2;P2;SDS_P1;SDS_P2;PMS_P1;PMS_P2;Temp;Humidity;BMP_temperature;BMP_pressure;BME280_temperature;BME280_humidity;BME280_pressure;Samples;Min_cycle;Max_cycle;Signal;HPM_P1;HPM_P2
2023/10/26 00:01:14;;;;;;;1.73;0.83;;;11.60;99.90;;;;;;5097271;28;20460;-37
2023/10/26 00:03:40;;;;;;;1.90;0.60;;;11.60;99.90;;;;;;5097488;28;20290;-38
2023/10/26 00:06:05;;;;;;;3.00;0.93;;;11.60;99.90;;;;;;5097544;28;20275;-36
2023/10/26 00:08:31;;;;;;;1.60;1.00;;;11.60;99.90;;;;;;5096533;28;20220;-38
2023/10/26 00:11:01;;;;;;;2.67;0.83;;;11.60;99.90;;;;;;5097690;28;20188;-39
2023/10/26 00:13:27;;;;;;;2.20;1.10;;;11.60;99.90;;;;;;5096749;28;20211;-38
2023/10/26 00:15:52;;;;;;;1.73;1.10;;;11.60;99.90;;;;;;5096713;28;20418;-37
2023/10/26 00:18:18;;;;;;;1.30;0.70;;;11.60;99.90;;;;;;5095339;28;20188;-38
2023/10/26 00:20:45;;;;;;;5.37;2.70;;;11.60;99.90;;;;;;5095774;28;20192;-39
2023/10/26 00:23:11;;;;;;;9.10;2.33;;;12.70;1.00;;;;;;5095495;28;20168;-41
2023/10/26 00:25:36;;;;;;;2.60;1.30;;;13.50;1.00;;;;;;5096415;28;20775;-42
2023/10/26 00:28:02;;;;;;;3.27;1.00;;;13.50;1.00;;;;;;5094604;28;20474;-38
2023/10/26 00:30:28;;;;;;;2.93;0.97;;;13.30;1.00;;;;;;5095733;28;20278;-38
2023/10/26 00:32:53;;;;;;;2.50;1.00;;;13.00;99.90;;;;;;5096382;28;20299;-37
2023/10/26 00:35:19;;;;;;;1.83;0.77;;;12.80;1.00;;;;;;5096614;28;20200;-38
2023/10/26 00:37:44;;;;;;;2.43;1.00;;;12.60;1.00;;;;;;5096351;28;20259;-39
2023/10/26 00:40:11;;;;;;;2.30;1.00;;;12.40;99.90;;;;;;5096927;28;20188;-37
2023/10/26 00:42:36;;;;;;;2.90;0.83;;;12.30;99.90;;;;;;5095929;28;20215;-38
2023/10/26 00:45:02;;;;;;;1.50;0.90;;;12.20;99.90;;;;;;5096410;28;20434;-37
2023/10/26 00:47:28;;;;;;;1.10;0.60;;;12.10;99.90;;;;;;5096962;28;20226;-38
2023/10/26 00:49:54;;;;;;;1.70;0.93;;;12.00;99.90;;;;;;5079348;28;20650;-38
2023/10/26 00:52:20;;;;;;;1.60;1.00;;;12.00;99.90;;;;;;5096635;28;20427;-38
2023/10/26 00:54:46;;;;;;;1.30;0.90;;;11.90;99.90;;;;;;5095864;28;20450;-38
2023/10/26 00:57:14;;;;;;;2.57;0.80;;;11.80;99.90;;;;;;5095613;28;20488;-37
2023/10/26 00:59:41;;;;;;;1.20;1.00;;;11.80;99.90;;;;;;5095274;28;20554;-37
2023/10/26 01:02:07;;;;;;;1.27;0.77;;;11.70;99.90;;;;;;5078215;28;20555;-37
2023/10/26 01:04:33;;;;;;;2.13;0.90;;;11.70;99.90;;;;;;5077492;28;20509;-38
2023/10/26 01:06:58;;;;;;;1.53;0.80;;;11.60;99.90;;;;;;5096432;28;20939;-37
2023/10/26 01:09:25;;;;;;;1.70;1.00;;;11.60;99.90;;;;;;5079036;28;20181;-38
2023/10/26 01:11:50;;;;;;;1.70;0.87;;;11.50;99.90;;;;;;5096546;28;20212;-38
2023/10/26 01:14:16;;;;;;;3.53;1.07;;;11.50;99.90;;;;;;5096534;28;20432;-39
2023/10/26 01:16:41;;;;;;;1.50;0.80;;;11.50;99.90;;;;;;5096910;28;20172;-36
2023/10/26 01:19:09;;;;;;;2.30;0.83;;;11.50;99.90;;;;;;5096650;28;20494;-38
2023/10/26 01:21:53;;;;;;;1.33;0.70;;;11.40;99.90;;;;;;5096283;28;20543;-37
2023/10/26 01:24:19;;;;;;;2.60;0.83;;;11.40;99.90;;;;;;5096515;28;20422;-37
2023/10/26 01:26:46;;;;;;;1.87;0.80;;;11.40;99.90;;;;;;5095701;28;20450;-37
2023/10/26 01:29:12;;;;;;;1.07;0.70;;;11.30;99.90;;;;;;5096286;28;20415;-37
2023/10/26 01:31:37;;;;;;;1.43;0.80;;;11.30;99.90;;;;;;5079245;28;20499;-38
2023/10/26 01:34:03;;;;;;;2.07;1.00;;;11.20;99.90;;;;;;5096311;28;20210;-37
2023/10/26 01:36:32;;;;;;;1.93;1.43;;;11.20;99.90;;;;;;5096049;28;20177;-39
2023/10/26 01:39:00;;;;;;;2.33;1.07;;;11.20;99.90;;;;;;5095891;28;20442;-37
2023/10/26 01:41:25;;;;;;;3.80;1.53;;;11.20;99.90;;;;;;5096574;28;20715;-37
2023/10/26 01:43:51;;;;;;;3.87;0.70;;;11.10;99.90;;;;;;5096007;28;20415;-39
2023/10/26 01:46:16;;;;;;;2.33;0.80;;;11.10;99.90;;;;;;5095916;28;20309;-37
2023/10/26 01:48:42;;;;;;;1.77;1.10;;;11.00;99.90;;;;;;5096828;28;20238;-37
2023/10/26 01:51:08;;;;;;;1.50;1.10;;;11.00;99.90;;;;;;5096162;28;20181;-38
2023/10/26 01:53:33;;;;;;;1.80;0.67;;;11.00;99.90;;;;;;5096059;28;20194;-39
2023/10/26 01:55:59;;;;;;;1.40;0.80;;;11.00;99.90;;;;;;5096640;28;20477;-37
2023/10/26 01:58:24;;;;;;;2.97;0.90;;;11.00;99.90;;;;;;5096118;28;20231;-37
2023/10/26 02:00:50;;;;;;;2.80;0.97;;;11.00;99.90;;;;;;5096753;28;20188;-39
2023/10/26 02:03:18;;;;;;;2.50;0.93;;;10.90;99.90;;;;;;5094940;28;20196;-40
2023/10/26 02:05:43;;;;;;;2.50;0.90;;;10.90;99.90;;;;;;5095552;28;20173;-38
2023/10/26 02:08:09;;;;;;;1.03;0.70;;;10.90;99.90;;;;;;5095902;28;20454;-38
2023/10/26 02:10:35;;;;;;;2.83;0.90;;;10.80;99.90;;;;;;5095144;28;20219;-37
2023/10/26 02:13:01;;;;;;;2.10;0.90;;;10.80;99.90;;;;;;5095659;28;20502;-38
2023/10/26 02:15:26;;;;;;;5.40;1.10;;;10.80;1.00;;;;;;5094965;28;20430;-38
2023/10/26 02:17:52;;;;;;;2.00;0.70;;;10.80;1.00;;;;;;5095652;28;20641;-36
2023/10/26 02:20:18;;;;;;;1.80;1.00;;;10.80;1.00;;;;;;5095659;28;20633;-38
2023/10/26 02:22:43;;;;;;;1.77;0.87;;;10.70;1.00;;;;;;5096458;28;20267;-37
2023/10/26 02:25:09;;;;;;;1.63;0.87;;;10.70;1.00;;;;;;5098829;28;20532;-40
2023/10/26 02:27:34;;;;;;;1.80;1.00;;;10.70;1.00;;;;;;5081554;28;20657;-39
2023/10/26 02:30:00;;;;;;;3.67;0.80;;;10.70;1.00;;;;;;5080543;28;20172;-40
2023/10/26 02:32:26;;;;;;;2.23;1.20;;;10.70;1.00;;;;;;5098194;28;20203;-38
2023/10/26 02:34:52;;;;;;;2.30;1.00;;;10.70;1.00;;;;;;5099025;28;20498;-39
2023/10/26 02:37:19;;;;;;;1.97;1.30;;;10.60;1.00;;;;;;5099124;28;20510;-37
2023/10/26 02:39:45;;;;;;;2.23;1.20;;;10.60;1.00;;;;;;5079165;28;20788;-38
2023/10/26 02:42:11;;;;;;;1.00;0.77;;;10.60;1.00;;;;;;5096906;28;20875;-38
2023/10/26 02:44:36;;;;;;;3.53;1.23;;;10.60;1.00;;;;;;5096997;28;21112;-38
2023/10/26 02:47:02;;;;;;;1.80;0.90;;;10.60;1.00;;;;;;5097015;28;20521;-38
2023/10/26 02:49:28;;;;;;;2.43;1.17;;;10.60;1.00;;;;;;5097412;28;20177;-39
2023/10/26 02:51:53;;;;;;;1.30;1.10;;;10.60;1.00;;;;;;5097783;28;20176;-37
2023/10/26 02:54:19;;;;;;;1.17;0.70;;;10.50;1.00;;;;;;5097948;28;20184;-38
2023/10/26 02:56:45;;;;;;;1.97;1.00;;;10.50;1.00;;;;;;5098490;28;20277;-40
2023/10/26 02:59:10;;;;;;;1.60;1.00;;;10.60;1.00;;;;;;5098003;28;20421;-37
2023/10/26 03:01:36;;;;;;;2.73;1.00;;;10.50;1.00;;;;;;5097573;28;20349;-39
2023/10/26 03:04:02;;;;;;;1.67;0.80;;;10.50;1.00;;;;;;5099026;28;20435;-40
2023/10/26 03:06:28;;;;;;;1.93;1.10;;;10.50;1.00;;;;;;5098449;28;20180;-37
2023/10/26 03:08:54;;;;;;;1.73;0.70;;;10.50;1.00;;;;;;5079836;28;20979;-38
2023/10/26 03:11:19;;;;;;;2.07;0.90;;;10.50;1.00;;;;;;5097315;28;20245;-37
2023/10/26 03:13:45;;;;;;;1.70;1.17;;;10.50;1.00;;;;;;5097660;28;20570;-38
2023/10/26 03:16:11;;;;;;;3.47;1.13;;;10.50;1.00;;;;;;5080821;28;20239;-38
2023/10/26 03:18:37;;;;;;;1.17;0.77;;;10.50;1.00;;;;;;5098402;28;20529;-38
2023/10/26 03:21:04;;;;;;;1.13;0.73;;;10.40;1.00;;;;;;5098260;28;20574;-37
2023/10/26 03:23:29;;;;;;;1.33;0.63;;;10.50;1.00;;;;;;5098223;28;20622;-38
2023/10/26 03:25:55;;;;;;;3.43;2.10;;;10.50;1.00;;;;;;5097685;28;20514;-38
2023/10/26 03:28:20;;;;;;;2.20;1.10;;;10.50;1.00;;;;;;5097796;28;20253;-38
2023/10/26 03:30:46;;;;;;;1.97;1.03;;;10.40;1.00;;;;;;5097811;28;20275;-39
2023/10/26 03:33:12;;;;;;;1.57;0.80;;;10.40;1.00;;;;;;5096930;28;20253;-37
2023/10/26 03:35:37;;;;;;;2.20;1.00;;;10.40;1.00;;;;;;5097190;28;20181;-39
2023/10/26 03:38:03;;;;;;;2.90;1.17;;;10.40;1.00;;;;;;5095623;28;20550;-39
2023/10/26 03:40:29;;;;;;;1.93;1.43;;;10.40;1.00;;;;;;5096143;28;20263;-37
2023/10/26 03:42:54;;;;;;;1.60;0.70;;;10.40;1.00;;;;;;5094657;28;20252;-36
2023/10/26 03:45:20;;;;;;;1.50;0.90;;;10.40;1.00;;;;;;5094654;28;20195;-37
2023/10/26 03:47:45;;;;;;;1.90;1.10;;;10.30;1.00;;;;;;5095390;28;20204;-38
2023/10/26 03:50:11;;;;;;;3.27;1.27;;;10.40;1.00;;;;;;5096682;28;20176;-39
2023/10/26 03:52:37;;;;;;;3.57;1.73;;;10.30;1.00;;;;;;5096275;28;20211;-37
2023/10/26 03:55:04;;;;;;;2.23;1.20;;;10.30;1.00;;;;;;5096938;28;20272;-39
2023/10/26 03:57:33;;;;;;;1.33;1.10;;;10.30;1.00;;;;;;5096941;28;20183;-37
2023/10/26 03:59:59;;;;;;;1.60;0.97;;;10.30;1.00;;;;;;5097729;28;20468;-40
2023/10/26 04:02:24;;;;;;;3.77;1.33;;;10.30;1.00;;;;;;5096248;28;20462;-39
2023/10/26 04:04:50;;;;;;;2.20;1.53;;;10.30;1.00;;;;;;5096433;28;20180;-36
2023/10/26 04:07:16;;;;;;;2.37;1.30;;;10.30;1.00;;;;;;5095805;28;20243;-41
2023/10/26 04:09:42;;;;;;;2.53;1.00;;;10.30;99.90;;;;;;5096403;28;20176;-36
2023/10/26 04:12:08;;;;;;;2.60;1.33;;;10.30;99.90;;;;;;5094902;28;20529;-37
2023/10/26 04:14:33;;;;;;;2.33;1.37;;;10.30;99.90;;;;;;5075822;28;20198;-39
2023/10/26 04:16:59;;;;;;;2.90;1.40;;;10.30;99.90;;;;;;5094598;28;20566;-38
2023/10/26 04:19:25;;;;;;;1.67;1.00;;;10.30;99.90;;;;;;5095505;28;20475;-38
2023/10/26 04:21:50;;;;;;;3.00;1.03;;;10.30;99.90;;;;;;5076530;28;20208;-38
2023/10/26 04:24:16;;;;;;;2.40;1.63;;;10.30;99.90;;;;;;5094300;28;20206;-38
2023/10/26 04:26:42;;;;;;;1.37;0.80;;;10.30;99.90;;;;;;5093498;28;20280;-37
2023/10/26 04:29:08;;;;;;;1.47;0.80;;;10.30;99.90;;;;;;5093338;28;20239;-37
2023/10/26 04:31:34;;;;;;;1.90;0.80;;;10.30;99.90;;;;;;5093514;28;20509;-37
2023/10/26 04:34:00;;;;;;;1.87;0.70;;;10.30;99.90;;;;;;5095614;28;20466;-38
2023/10/26 04:36:26;;;;;;;1.60;0.83;;;10.30;99.90;;;;;;5095941;28;20420;-37
2023/10/26 04:38:51;;;;;;;7.90;1.70;;;10.30;99.90;;;;;;5095604;28;20214;-40
2023/10/26 04:41:17;;;;;;;1.57;0.80;;;10.30;99.90;;;;;;5095688;28;20204;-38
2023/10/26 04:43:43;;;;;;;2.03;0.70;;;10.30;99.90;;;;;;5093915;28;20467;-38
2023/10/26 04:46:09;;;;;;;1.20;0.93;;;10.30;99.90;;;;;;5092584;28;20619;-38
2023/10/26 04:48:34;;;;;;;1.73;0.90;;;10.40;99.90;;;;;;5094420;28;20257;-37
2023/10/26 04:51:00;;;;;;;2.10;1.07;;;10.30;99.90;;;;;;5094784;28;20185;-36
2023/10/26 04:53:26;;;;;;;2.77;0.90;;;10.40;99.90;;;;;;5094955;28;20582;-38
2023/10/26 04:55:51;;;;;;;1.53;1.10;;;10.40;99.90;;;;;;5074725;28;20177;-38
2023/10/26 04:58:18;;;;;;;1.33;0.77;;;10.40;99.90;;;;;;5092561;28;20450;-38
2023/10/26 05:00:43;;;;;;;1.80;0.97;;;10.40;99.90;;;;;;5092840;28;20192;-38
2023/10/26 05:03:09;;;;;;;1.70;0.90;;;10.40;99.90;;;;;;5091841;28;20434;-38
2023/10/26 05:05:35;;;;;;;2.87;0.97;;;10.40;99.90;;;;;;5093099;28;20180;-37
2023/10/26 05:08:01;;;;;;;2.30;1.00;;;10.40;99.90;;;;;;5090631;28;20212;-38
2023/10/26 05:10:27;;;;;;;1.50;1.03;;;10.40;99.90;;;;;;5089657;28;20199;-38
2023/10/26 05:12:53;;;;;;;1.47;0.90;;;10.40;99.90;;;;;;5087952;28;20180;-38
2023/10/26 05:15:18;;;;;;;3.10;0.90;;;10.40;1.00;;;;;;5089318;28;20422;-37
2023/10/26 05:17:45;;;;;;;2.40;1.00;;;10.50;1.00;;;;;;5089746;28;20455;-40
2023/10/26 05:20:10;;;;;;;2.90;1.80;;;10.50;1.00;;;;;;5089096;28;20212;-38
2023/10/26 05:22:37;;;;;;;2.17;1.40;;;10.50;1.00;;;;;;5088387;28;20588;-37
2023/10/26 05:25:05;;;;;;;2.70;1.50;;;10.50;1.00;;;;;;5088906;28;20434;-37
2023/10/26 05:27:34;;;;;;;2.97;1.37;;;10.50;1.00;;;;;;5087979;28;20577;-38
2023/10/26 05:30:00;;;;;;;2.43;1.33;;;10.50;1.00;;;;;;5078152;28;20719;-37
2023/10/26 05:32:26;;;;;;;4.90;1.47;;;10.50;1.00;;;;;;5066009;28;20459;-36
2023/10/26 05:34:52;;;;;;;3.87;1.20;;;10.50;1.00;;;;;;5069698;28;20170;-38
2023/10/26 05:37:18;;;;;;;2.00;1.20;;;10.60;1.00;;;;;;5069314;28;20729;-36
2023/10/26 05:39:44;;;;;;;1.60;1.07;;;10.60;1.00;;;;;;5068247;28;20424;-37
2023/10/26 05:42:10;;;;;;;1.20;1.00;;;10.60;1.00;;;;;;5070248;28;20431;-36
2023/10/26 05:44:36;;;;;;;1.60;1.10;;;10.60;1.00;;;;;;5069251;28;20506;-38
2023/10/26 05:47:01;;;;;;;1.53;1.20;;;10.70;1.00;;;;;;5050256;28;20423;-36
2023/10/26 05:49:27;;;;;;;2.33;1.30;;;10.70;1.00;;;;;;5070574;28;20411;-37
2023/10/26 05:51:53;;;;;;;1.97;1.30;;;10.70;1.00;;;;;;5069203;28;20189;-36
2023/10/26 05:54:19;;;;;;;2.60;1.03;;;10.70;1.00;;;;;;5069576;28;20177;-36
2023/10/26 05:56:45;;;;;;;2.40;1.00;;;10.70;1.00;;;;;;5070570;28;20717;-36
2023/10/26 05:59:11;;;;;;;1.83;1.17;;;10.80;1.00;;;;;;5055102;28;20423;-37
2023/10/26 06:01:36;;;;;;;2.33;1.57;;;10.80;1.00;;;;;;5073550;28;20423;-39
2023/10/26 06:04:02;;;;;;;2.73;1.43;;;10.80;1.00;;;;;;5075059;28;20721;-36
2023/10/26 06:06:28;;;;;;;1.67;1.03;;;10.80;1.00;;;;;;5073773;28;20185;-38
2023/10/26 06:08:53;;;;;;;1.70;1.13;;;10.80;1.00;;;;;;5074042;28;20244;-37
2023/10/26 06:11:19;;;;;;;2.97;1.27;;;10.90;1.00;;;;;;5057802;28;20435;-37
2023/10/26 06:13:45;;;;;;;4.60;0.83;;;10.90;1.00;;;;;;5074873;28;20350;-38
2023/10/26 06:16:15;;;;;;;2.30;1.37;;;10.90;1.00;;;;;;5075789;28;20180;-37
2023/10/26 06:18:42;;;;;;;2.10;1.00;;;10.90;1.00;;;;;;5056953;28;20385;-39
2023/10/26 06:21:08;;;;;;;2.17;1.10;;;10.90;1.00;;;;;;5055851;28;20862;-36
2023/10/26 06:23:34;;;;;;;2.47;1.40;;;11.00;1.00;;;;;;5056175;28;20467;-37
2023/10/26 06:26:01;;;;;;;1.70;1.10;;;11.00;1.00;;;;;;5056539;28;20438;-37
2023/10/26 06:28:28;;;;;;;7.90;1.97;;;11.20;99.90;;;;;;5037985;28;20472;-38
2023/10/26 06:30:54;;;;;;;4.00;1.83;;;11.60;1.00;;;;;;5037531;28;20431;-37
2023/10/26 06:33:20;;;;;;;10.97;2.13;;;12.00;1.00;;;;;;5054133;28;20428;-39
2023/10/26 06:35:46;;;;;;;5.37;1.50;;;12.40;1.00;;;;;;5056589;28;20428;-39
2023/10/26 06:38:11;;;;;;;4.97;1.40;;;12.70;1.00;;;;;;5057066;28;20186;-39
2023/10/26 06:40:37;;;;;;;2.33;1.37;;;12.90;1.00;;;;;;5055074;28;20420;-38
2023/10/26 06:43:04;;;;;;;4.13;1.20;;;13.20;1.00;;;;;;5057061;28;20192;-38
2023/10/26 06:45:30;;;;;;;3.07;1.50;;;13.30;1.00;;;;;;5055978;28;20244;-36
2023/10/26 06:47:55;;;;;;;3.10;1.27;;;13.50;1.00;;;;;;5055904;28;20472;-40
2023/10/26 06:50:23;;;;;;;4.80;2.23;;;13.70;99.90;;;;;;5038204;28;20797;-40
2023/10/26 06:52:48;;;;;;;2.73;1.00;;;13.90;99.90;;;;;;5053683;28;20189;-37
2023/10/26 06:55:15;;;;;;;2.90;1.73;;;14.00;99.90;;;;;;5034887;28;20785;-38
2023/10/26 06:57:41;;;;;;;3.93;2.70;;;14.10;99.90;;;;;;5035637;28;20214;-38
2023/10/26 07:00:07;;;;;;;2.00;1.40;;;14.10;99.90;;;;;;5056102;28;20428;-37
2023/10/26 07:02:33;;;;;;;4.00;2.03;;;14.20;35.50;;;;;;5053245;28;20432;-39
2023/10/26 07:04:59;;;;;;;4.00;2.10;;;14.30;1.00;;;;;;5055414;28;20470;-40
2023/10/26 07:07:26;;;;;;;3.77;2.10;;;14.40;1.00;;;;;;5055460;28;20532;-38
2023/10/26 07:09:52;;;;;;;4.10;2.40;;;14.50;1.00;;;;;;5057042;28;20501;-41
2023/10/26 07:12:17;;;;;;;3.53;3.23;;;14.60;1.00;;;;;;5055984;28;20420;-40
2023/10/26 07:14:43;;;;;;;9.03;7.00;;;14.80;1.00;;;;;;5057803;28;20436;-38
2023/10/26 07:17:09;;;;;;;9.70;8.23;;;14.80;99.90;;;;;;5039332;28;20420;-38
2023/10/26 07:19:34;;;;;;;10.63;9.03;;;14.80;99.90;;;;;;5049065;28;20229;-39
2023/10/26 07:22:00;;;;;;;10.93;8.90;;;14.70;1.00;;;;;;5075799;28;20192;-38
2023/10/26 07:24:26;;;;;;;11.77;10.23;;;14.50;99.90;;;;;;5075480;28;20742;-37
2023/10/26 07:26:51;;;;;;;10.33;9.30;;;14.30;99.90;;;;;;5076542;28;20644;-38
2023/10/26 07:29:17;;;;;;;10.40;8.47;;;14.00;22.50;;;;;;5073784;28;20730;-38
2023/10/26 07:31:44;;;;;;;7.97;6.60;;;13.80;1.00;;;;;;5073389;28;20189;-37
2023/10/26 07:34:10;;;;;;;7.90;7.10;;;13.70;48.90;;;;;;5056650;28;20535;-37
2023/10/26 07:36:35;;;;;;;7.33;6.63;;;13.60;84.40;;;;;;5075275;28;20450;-39
2023/10/26 07:39:02;;;;;;;5.07;4.40;;;13.40;99.90;;;;;;5074655;28;20328;-38
2023/10/26 07:41:28;;;;;;;6.53;4.40;;;13.40;99.90;;;;;;5075433;28;20810;-38
2023/10/26 07:43:54;;;;;;;5.63;4.73;;;13.30;99.90;;;;;;5074757;28;20408;-38
2023/10/26 07:46:20;;;;;;;10.57;8.07;;;13.30;99.90;;;;;;5074329;28;20442;-37
2023/10/26 07:48:47;;;;;;;12.77;10.80;;;13.30;99.90;;;;;;5076151;28;20302;-37
2023/10/26 07:51:13;;;;;;;10.27;9.20;;;13.30;99.90;;;;;;5059122;28;20427;-36
2023/10/26 07:53:39;;;;;;;8.20;6.30;;;13.30;99.90;;;;;;5074193;28;20423;-39
2023/10/26 07:56:05;;;;;;;10.37;8.57;;;13.30;99.90;;;;;;5074955;28;20478;-38
2023/10/26 07:58:32;;;;;;;14.67;8.73;;;13.30;1.00;;;;;;5076767;28;20518;-38
2023/10/26 08:00:58;;;;;;;13.03;11.67;;;13.30;1.00;;;;;;5074185;28;20423;-37
2023/10/26 08:03:27;;;;;;;15.30;12.80;;;13.30;1.00;;;;;;5075828;28;20542;-37
2023/10/26 08:06:00;;;;;;;17.57;14.33;;;13.30;1.00;;;;;;5074684;28;20427;-38
2023/10/26 08:08:26;;;;;;;21.47;13.87;;;13.30;1.00;;;;;;5075010;28;20506;-38
2023/10/26 08:10:52;;;;;;;14.80;11.97;;;13.30;1.00;;;;;;5074063;28;20412;-37
2023/10/26 08:13:17;;;;;;;15.00;12.13;;;13.30;1.00;;;;;;5074078;28;20430;-36
2023/10/26 08:15:44;;;;;;;13.93;9.87;;;13.30;1.00;;;;;;5074995;28;20181;-38
2023/10/26 08:18:11;;;;;;;7.77;6.40;;;13.30;1.00;;;;;;5057344;28;20184;-39
2023/10/26 08:20:38;;;;;;;7.73;6.03;;;13.30;1.00;;;;;;5075533;28;20617;-36
2023/10/26 08:23:04;;;;;;;11.27;7.70;;;13.40;1.00;;;;;;5076103;28;20415;-39
2023/10/26 08:25:32;;;;;;;9.03;6.87;;;13.50;1.00;;;;;;5058173;28;20434;-38
2023/10/26 08:27:58;;;;;;;7.93;5.50;;;13.60;1.00;;;;;;5058169;28;20809;-38
2023/10/26 08:30:23;;;;;;;6.17;4.23;;;13.70;1.00;;;;;;5075826;28;20535;-37
2023/10/26 08:32:53;;;;;;;4.13;3.20;;;13.70;1.00;;;;;;5075861;28;20200;-38
2023/10/26 08:35:19;;;;;;;4.47;3.37;;;13.80;1.00;;;;;;5076076;28;20177;-38
2023/10/26 08:37:44;;;;;;;5.30;2.70;;;13.90;1.00;;;;;;5075800;28;20477;-38
2023/10/26 08:40:11;;;;;;;7.80;4.90;;;14.10;1.00;;;;;;5076305;28;20534;-38
2023/10/26 08:42:38;;;;;;;5.50;4.40;;;14.20;99.90;;;;;;5058057;28;20690;-37
2023/10/26 08:45:11;;;;;;;6.20;4.90;;;14.40;99.90;;;;;;5075528;28;20427;-38
2023/10/26 08:47:36;;;;;;;9.03;6.43;;;14.50;99.90;;;;;;5074620;28;20466;-38
2023/10/26 08:50:12;;;;;;;9.47;7.23;;;14.60;72.40;;;;;;5075125;28;20470;-38
2023/10/26 08:52:38;;;;;;;11.73;8.17;;;14.70;1.00;;;;;;5056852;28;20516;-39
2023/10/26 08:55:05;;;;;;;11.03;7.90;;;14.80;1.00;;;;;;5073755;28;20439;-37
2023/10/26 08:57:30;;;;;;;8.33;5.37;;;14.90;1.00;;;;;;5055628;28;20189;-38
2023/10/26 08:59:57;;;;;;;4.53;2.93;;;14.90;1.00;;;;;;5074801;28;20451;-40
2023/10/26 09:02:22;;;;;;;4.43;4.03;;;14.90;99.90;;;;;;5074826;28;20471;-37
2023/10/26 09:05:02;;;;;;;3.20;2.23;;;15.00;99.90;;;;;;5074208;28;20947;-37
2023/10/26 09:07:28;;;;;;;2.13;1.60;;;15.10;99.90;;;;;;5058806;28;20315;-38
2023/10/26 09:09:54;;;;;;;3.73;2.93;;;15.10;99.90;;;;;;5075179;28;20419;-39
2023/10/26 09:12:19;;;;;;;2.80;1.90;;;15.10;99.90;;;;;;5075012;28;20436;-38
2023/10/26 09:15:02;;;;;;;3.10;2.10;;;15.10;99.90;;;;;;5074719;28;20187;-38
2023/10/26 09:17:29;;;;;;;1.43;1.10;;;15.00;99.90;;;;;;5074260;28;20228;-39
2023/10/26 09:19:55;;;;;;;2.03;1.30;;;15.00;99.90;;;;;;5074376;28;20478;-38
2023/10/26 09:22:37;;;;;;;2.57;1.47;;;14.90;1.00;;;;;;5074810;28;20423;-39
2023/10/26 09:25:07;;;;;;;2.53;1.40;;;14.80;1.00;;;;;;5076649;28;20437;-39
2023/10/26 09:27:35;;;;;;;1.27;0.90;;;14.60;99.90;;;;;;5075025;28;20479;-39
2023/10/26 09:30:01;;;;;;;5.37;1.17;;;14.60;99.90;;;;;;5072225;28;20465;-38
2023/10/26 09:32:34;;;;;;;1.70;1.00;;;14.40;99.90;;;;;;5095722;28;20483;-38
2023/10/26 09:35:00;;;;;;;3.10;1.20;;;14.30;1.00;;;;;;5078784;28;20414;-38
2023/10/26 09:37:26;;;;;;;1.80;1.10;;;14.20;1.00;;;;;;5098090;28;20492;-38
2023/10/26 09:39:52;;;;;;;1.70;1.10;;;14.00;29.10;;;;;;5096934;28;21031;-37
2023/10/26 09:42:19;;;;;;;1.47;0.90;;;13.80;99.90;;;;;;5095159;28;20180;-38
2023/10/26 09:44:47;;;;;;;1.73;1.63;;;13.70;99.90;;;;;;5096056;28;20701;-39
2023/10/26 09:47:13;;;;;;;1.77;1.10;;;13.60;99.90;;;;;;5079170;28;20541;-39
2023/10/26 09:49:39;;;;;;;1.60;1.10;;;13.40;1.00;;;;;;5080116;28;20505;-39
2023/10/26 09:52:04;;;;;;;2.03;1.83;;;13.40;1.00;;;;;;5097855;28;20836;-37
2023/10/26 09:54:36;;;;;;;1.37;1.27;;;13.30;1.00;;;;;;5098113;28;20189;-38
2023/10/26 09:57:21;;;;;;;1.53;1.20;;;13.30;1.00;;;;;;5099252;28;20249;-40
2023/10/26 09:59:53;;;;;;;3.17;1.60;;;13.40;1.00;;;;;;5080095;28;20437;-39
2023/10/26 10:02:19;;;;;;;1.83;1.37;;;13.50;1.00;;;;;;5094925;28;20418;-40
2023/10/26 10:04:46;;;;;;;1.70;1.20;;;13.60;1.00;;;;;;5097197;28;20419;-39
2023/10/26 10:07:20;;;;;;;2.80;1.33;;;13.70;1.00;;;;;;5099049;28;20419;-39
2023/10/26 10:10:09;;;;;;;1.20;0.93;;;13.80;1.00;;;;;;5081016;28;20441;-38
2023/10/26 10:12:37;;;;;;;2.20;1.30;;;13.90;1.00;;;;;;5097980;28;20445;-38
2023/10/26 10:15:06;;;;;;;1.70;1.40;;;14.00;1.00;;;;;;5097452;28;20430;-39
2023/10/26 10:17:44;;;;;;;1.90;1.20;;;14.10;1.00;;;;;;5096339;28;20422;-40
2023/10/26 10:20:19;;;;;;;3.33;1.60;;;14.20;1.00;;;;;;5095897;28;20477;-39
2023/10/26 10:22:48;;;;;;;2.60;1.70;;;14.30;1.00;;;;;;5078721;28;20433;-38
2023/10/26 10:25:18;;;;;;;2.73;1.60;;;14.40;99.90;;;;;;5096936;28;20820;-39
2023/10/26 10:27:49;;;;;;;2.50;1.70;;;14.60;99.90;;;;;;5076651;28;20484;-39
2023/10/26 10:30:19;;;;;;;1.90;1.50;;;14.80;99.90;;;;;;5096231;28;20753;-38
2023/10/26 10:32:46;;;;;;;2.23;1.33;;;15.00;99.90;;;;;;5078400;28;20438;-40
2023/10/26 10:35:21;;;;;;;6.00;1.60;;;15.10;99.90;;;;;;5095905;28;20418;-39
2023/10/26 10:38:13;;;;;;;1.40;1.00;;;15.20;90.70;;;;;;5092962;28;20432;-40
2023/10/26 10:40:40;;;;;;;3.37;1.20;;;15.30;1.00;;;;;;5089935;28;20714;-40
2023/10/26 10:43:06;;;;;;;1.00;0.70;;;15.40;1.00;;;;;;5092366;28;20743;-39
2023/10/26 10:45:32;;;;;;;2.37;1.60;;;15.40;1.00;;;;;;5094475;28;20446;-40
2023/10/26 10:47:57;;;;;;;2.43;1.60;;;15.40;1.00;;;;;;5095409;28;20326;-38
2023/10/26 10:50:25;;;;;;;2.93;1.67;;;15.30;1.00;;;;;;5078469;28;20525;-40
2023/10/26 10:52:55;;;;;;;3.00;2.10;;;15.40;1.00;;;;;;5079439;28;20200;-39
2023/10/26 10:55:30;;;;;;;3.27;2.17;;;15.40;1.00;;;;;;5096408;28;20426;-38
2023/10/26 10:58:03;;;;;;;1.77;1.20;;;15.50;1.00;;;;;;5096768;28;20466;-40
2023/10/26 11:00:45;;;;;;;2.50;1.63;;;15.50;1.00;;;;;;5095132;28;20684;-39
2023/10/26 11:03:21;;;;;;;3.50;1.53;;;15.70;1.00;;;;;;5095708;28;20454;-38
2023/10/26 11:05:47;;;;;;;1.73;1.00;;;15.70;1.00;;;;;;5096129;28;20426;-39
2023/10/26 11:08:12;;;;;;;2.40;1.70;;;15.70;1.00;;;;;;5098182;28;20470;-40
2023/10/26 11:10:39;;;;;;;4.70;4.30;;;15.80;1.00;;;;;;5094668;28;20607;-39
2023/10/26 11:13:05;;;;;;;7.90;7.20;;;15.90;1.00;;;;;;5075110;28;20180;-39
2023/10/26 11:15:32;;;;;;;9.50;8.70;;;16.00;1.00;;;;;;5093935;28;20747;-38
2023/10/26 11:17:59;;;;;;;6.13;5.53;;;16.00;99.90;;;;;;5093811;28;20430;-39
2023/10/26 11:20:40;;;;;;;6.03;5.53;;;16.00;99.90;;;;;;5060615;28;20501;-38
2023/10/26 11:23:11;;;;;;;5.50;5.00;;;16.00;99.90;;;;;;5074359;28;20427;-39
2023/10/26 11:25:37;;;;;;;4.40;4.00;;;16.10;99.90;;;;;;5056936;28;20498;-38
2023/10/26 11:28:03;;;;;;;4.80;3.33;;;16.10;99.90;;;;;;5074705;28;20470;-39
2023/10/26 11:30:30;;;;;;;3.40;3.10;;;16.20;99.90;;;;;;5042513;28;20438;-40
2023/10/26 11:32:56;;;;;;;2.43;2.23;;;16.20;99.90;;;;;;5076045;28;20459;-40
2023/10/26 11:35:23;;;;;;;4.03;2.30;;;16.40;99.90;;;;;;5059067;28;20571;-38
2023/10/26 11:38:08;;;;;;;3.90;2.40;;;16.50;99.90;;;;;;5059823;28;20274;-42
2023/10/26 11:40:34;;;;;;;2.83;2.60;;;16.70;42.60;;;;;;5057789;28;20755;-39
2023/10/26 11:43:02;;;;;;;2.60;2.07;;;17.30;1.00;;;;;;5057994;28;20427;-38
2023/10/26 11:45:28;;;;;;;1.93;1.73;;;18.20;1.00;;;;;;5073333;28;20675;-41
2023/10/26 11:47:56;;;;;;;2.57;2.03;;;19.30;99.90;;;;;;5057535;28;20479;-39
2023/10/26 11:50:24;;;;;;;2.83;2.53;;;20.20;99.90;;;;;;5074200;28;20439;-39
2023/10/26 11:52:51;;;;;;;6.37;5.43;;;20.90;99.90;;;;;;5074026;28;20453;-39
2023/10/26 11:55:18;;;;;;;8.00;7.20;;;21.60;1.00;;;;;;5054822;28;20756;-43
2023/10/26 11:57:44;;;;;;;7.80;6.00;;;22.20;99.90;;;;;;5072276;28;20798;-40
2023/10/26 12:00:11;;;;;;;4.27;3.63;;;22.80;99.90;;;;;;5071867;28;20415;-39
2023/10/26 12:02:38;;;;;;;4.30;3.03;;;23.60;99.90;;;;;;5073597;28;20497;-39
2023/10/26 12:05:07;;;;;;;2.10;1.60;;;24.90;19.90;;;;;;5073023;28;20422;-41
2023/10/26 12:07:36;;;;;;;1.80;1.27;;;26.10;1.00;;;;;;5073985;28;20920;-39
2023/10/26 12:10:03;;;;;;;2.00;1.60;;;27.30;1.00;;;;;;5073022;28;20599;-41
2023/10/26 12:12:28;;;;;;;2.67;2.40;;;28.10;1.00;;;;;;5055792;28;20434;-44
2023/10/26 12:14:54;;;;;;;2.60;2.40;;;29.40;1.00;;;;;;5073240;28;20419;-40
2023/10/26 12:17:19;;;;;;;4.40;4.00;;;29.90;1.00;;;;;;5054256;28;20587;-39
2023/10/26 12:19:45;;;;;;;2.50;2.30;;;29.40;1.00;;;;;;5062735;28;20653;-38
2023/10/26 12:22:11;;;;;;;4.53;4.13;;;28.70;1.00;;;;;;5074146;28;20204;-41
2023/10/26 12:24:36;;;;;;;6.60;5.33;;;28.50;1.00;;;;;;5072711;28;20189;-41
2023/10/26 12:27:02;;;;;;;3.90;3.53;;;29.40;1.00;;;;;;5073260;28;20181;-42
2023/10/26 12:29:29;;;;;;;6.33;5.73;;;29.60;1.00;;;;;;5070960;28;20522;-39
2023/10/26 12:31:54;;;;;;;4.23;3.80;;;29.40;1.00;;;;;;5070366;28;20408;-40
2023/10/26 12:34:20;;;;;;;5.87;4.93;;;28.70;1.00;;;;;;5072990;28;20422;-40
2023/10/26 12:36:46;;;;;;;5.37;4.27;;;29.30;1.00;;;;;;5072633;28;20438;-41
2023/10/26 12:39:12;;;;;;;7.63;6.83;;;29.90;1.00;;;;;;5038179;28;20535;-39
2023/10/26 12:41:38;;;;;;;6.83;4.30;;;30.40;1.00;;;;;;5056972;28;20220;-42
2023/10/26 12:44:04;;;;;;;3.87;3.40;;;31.00;1.00;;;;;;5071914;28;20177;-40
2023/10/26 12:46:29;;;;;;;5.43;2.90;;;31.10;1.00;;;;;;5072718;28;20279;-43
2023/10/26 12:48:55;;;;;;;3.03;2.37;;;31.00;1.00;;;;;;5073211;28;20724;-41